< < Back
Terminal Aerodrome Forecast


Current Version              Previous Versions:   1  2  3  4  5  6  7  8  9  

Terminal Aerodrome Forecast

582
FTUS44 KMOB 250500
TAFMOB
TAF
KMOB 250538Z 2506/2606 35003KT P6SM SKC
     FM251500 35007KT P6SM SKC=

Latest METAR

109
SAUS80 KWBC 260800
MTRMOB
METAR KMOB 260756Z AUTO 00000KT 7SM CLR 14/14 A3004 RMK AO2 SLP169
T01390139


USA.gov is the U.S. government's official web portal to all federal, state and local government web resources and services.